Time;durP1;ratioP1;P1;durP2;ratioP2;P2;SDS_P1;SDS_P2;PMS_P1;PMS_P2;Temp;Humidity;BMP_temperature;BMP_pressure;BME280_temperature;BME280_humidity;BME280_pressure;Samples;Min_cycle;Max_cycle;Signal;HPM_P1;HPM_P2
2021/09/16 00:00:58;;;;;;;18.02;11.60;;;21.10;99.90;;;;;;5022378;28;20079;-69
2021/09/16 00:03:24;;;;;;;16.20;12.35;;;21.10;99.90;;;;;;5032720;28;20505;-69
2021/09/16 00:05:50;;;;;;;16.10;12.73;;;21.10;99.90;;;;;;5035280;28;20045;-69
2021/09/16 00:08:15;;;;;;;16.20;13.70;;;21.10;99.90;;;;;;5033103;28;20010;-69
2021/09/16 00:10:41;;;;;;;15.65;12.27;;;21.10;99.90;;;;;;5035339;28;20512;-69
2021/09/16 00:13:06;;;;;;;15.50;12.52;;;21.10;99.90;;;;;;5032046;28;20111;-69
2021/09/16 00:15:32;;;;;;;15.27;12.52;;;21.10;99.90;;;;;;5031860;28;20035;-69
2021/09/16 00:17:57;;;;;;;17.05;12.27;;;21.20;99.90;;;;;;5047898;28;20033;-69
2021/09/16 00:20:23;;;;;;;13.45;11.52;;;21.20;99.90;;;;;;5032227;28;20461;-69
2021/09/16 00:22:48;;;;;;;16.35;11.88;;;21.20;99.90;;;;;;5030417;28;20106;-69
2021/09/16 00:25:14;;;;;;;16.33;13.00;;;21.20;99.90;;;;;;5031248;28;20055;-69
2021/09/16 00:27:39;;;;;;;18.48;11.65;;;21.20;99.90;;;;;;5052591;28;20189;-69
2021/09/16 00:30:05;;;;;;;14.30;11.88;;;21.20;99.90;;;;;;5037919;28;20025;-69
2021/09/16 00:32:31;;;;;;;14.35;11.90;;;21.20;99.90;;;;;;5038175;28;20032;-70
2021/09/16 00:34:56;;;;;;;12.77;11.38;;;21.20;99.90;;;;;;5031776;28;20025;-70
2021/09/16 00:37:22;;;;;;;13.20;10.95;;;21.20;99.90;;;;;;5031336;28;20076;-70
2021/09/16 00:39:47;;;;;;;14.13;10.60;;;21.20;99.90;;;;;;5031911;28;20456;-70
2021/09/16 00:42:17;;;;;;;13.68;11.38;;;21.20;99.90;;;;;;5030445;28;20026;-70
2021/09/16 00:44:43;;;;;;;13.52;10.50;;;21.20;99.90;;;;;;5029803;28;20021;-69
2021/09/16 00:47:09;;;;;;;13.27;11.50;;;21.10;99.90;;;;;;5034790;28;20030;-69
2021/09/16 00:49:34;;;;;;;12.23;10.40;;;21.10;99.90;;;;;;5031017;28;20359;-69
2021/09/16 00:52:00;;;;;;;12.10;9.65;;;21.10;99.90;;;;;;5032023;28;20032;-70
2021/09/16 00:54:27;;;;;;;14.30;11.30;;;21.10;99.90;;;;;;5033131;28;20060;-69
2021/09/16 00:56:54;;;;;;;13.25;10.13;;;21.10;99.90;;;;;;5047968;28;20028;-69
2021/09/16 00:59:21;;;;;;;12.40;10.18;;;21.00;99.90;;;;;;5028419;28;20053;-70
2021/09/16 01:01:48;;;;;;;11.93;10.15;;;21.00;99.90;;;;;;5011982;28;20497;-69
2021/09/16 01:04:13;;;;;;;12.35;9.88;;;21.00;99.90;;;;;;5031278;28;20026;-69
2021/09/16 01:06:39;;;;;;;11.10;9.90;;;21.00;99.90;;;;;;5051343;28;20032;-69
2021/09/16 01:09:04;;;;;;;13.55;10.65;;;20.90;99.90;;;;;;5013043;28;20041;-70
2021/09/16 01:11:30;;;;;;;13.80;10.93;;;21.00;99.90;;;;;;5026886;28;20036;-69
2021/09/16 01:13:57;;;;;;;12.98;10.60;;;20.90;99.90;;;;;;5030681;28;20100;-68
2021/09/16 01:16:23;;;;;;;14.38;10.02;;;20.90;99.90;;;;;;5029602;28;20116;-68
2021/09/16 01:18:48;;;;;;;12.15;9.98;;;20.90;99.90;;;;;;5031208;28;20112;-68
2021/09/16 01:21:14;;;;;;;12.52;10.52;;;20.90;99.90;;;;;;5029917;28;20018;-69
2021/09/16 01:23:39;;;;;;;12.52;10.27;;;20.90;99.90;;;;;;5031327;28;20432;-69
2021/09/16 01:26:05;;;;;;;13.88;11.50;;;20.90;99.90;;;;;;5035390;28;20020;-69
2021/09/16 01:28:31;;;;;;;13.13;11.00;;;20.90;99.90;;;;;;5029744;28;20108;-68
2021/09/16 01:30:56;;;;;;;13.32;11.25;;;20.80;99.90;;;;;;5029842;28;20378;-70
2021/09/16 01:33:22;;;;;;;12.65;10.20;;;20.90;99.90;;;;;;5038391;28;20478;-70
2021/09/16 01:35:47;;;;;;;13.90;10.00;;;20.90;99.90;;;;;;5028305;28;20022;-70
2021/09/16 01:38:13;;;;;;;15.13;11.10;;;20.80;99.90;;;;;;5011247;28;20049;-69
2021/09/16 01:40:38;;;;;;;13.00;10.20;;;20.80;99.90;;;;;;5022812;28;20474;-69
2021/09/16 01:43:04;;;;;;;13.27;11.48;;;20.80;99.90;;;;;;5029283;28;20032;-70
2021/09/16 01:45:30;;;;;;;12.25;10.77;;;20.70;99.90;;;;;;5032579;28;20029;-70
2021/09/16 01:47:56;;;;;;;15.55;11.25;;;20.70;99.90;;;;;;5029546;28;20374;-69
2021/09/16 01:50:24;;;;;;;12.45;10.45;;;20.70;99.90;;;;;;5023615;28;20109;-69
2021/09/16 01:52:50;;;;;;;13.32;10.45;;;20.70;99.90;;;;;;5011141;28;20026;-70
2021/09/16 01:55:16;;;;;;;13.68;10.13;;;20.70;99.90;;;;;;4985010;28;1010798;-69
2021/09/16 01:57:42;;;;;;;15.02;11.60;;;20.70;99.90;;;;;;5031066;28;20033;-70
2021/09/16 02:00:09;;;;;;;14.40;11.45;;;20.60;99.90;;;;;;5036572;28;20128;-69
2021/09/16 02:02:34;;;;;;;13.68;10.60;;;20.60;99.90;;;;;;5033061;28;20021;-69
2021/09/16 02:05:00;;;;;;;13.57;10.95;;;20.60;99.90;;;;;;5038190;28;20086;-69
2021/09/16 02:07:26;;;;;;;12.93;10.52;;;20.60;99.90;;;;;;5030994;28;20025;-70
2021/09/16 02:09:52;;;;;;;12.55;9.88;;;20.50;99.90;;;;;;5035246;28;20025;-69
2021/09/16 02:12:18;;;;;;;12.55;9.98;;;20.50;99.90;;;;;;5030494;28;20025;-69
2021/09/16 02:14:43;;;;;;;13.32;10.93;;;20.50;99.90;;;;;;5029600;28;20389;-69
2021/09/16 02:17:09;;;;;;;13.50;10.32;;;20.50;99.90;;;;;;5030533;28;20029;-69
2021/09/16 02:19:34;;;;;;;14.18;10.52;;;20.50;99.90;;;;;;5029471;28;20033;-69
2021/09/16 02:22:00;;;;;;;13.68;10.10;;;20.50;99.90;;;;;;5031461;28;20543;-69
2021/09/16 02:24:25;;;;;;;14.30;11.27;;;20.50;99.90;;;;;;5029749;28;20018;-69
2021/09/16 02:26:51;;;;;;;14.07;10.50;;;20.50;99.90;;;;;;5031046;28;20060;-69
2021/09/16 02:29:16;;;;;;;16.10;11.65;;;20.40;99.90;;;;;;5033515;28;20199;-68
2021/09/16 02:31:42;;;;;;;11.60;10.10;;;20.40;99.90;;;;;;5043141;28;20522;-67
2021/09/16 02:34:07;;;;;;;13.65;10.70;;;20.40;99.90;;;;;;5024521;28;20041;-68
2021/09/16 02:36:33;;;;;;;18.23;11.52;;;20.40;99.90;;;;;;5031233;28;20033;-68
2021/09/16 02:38:58;;;;;;;14.38;10.30;;;20.40;99.90;;;;;;5030400;28;20049;-69
2021/09/16 02:41:24;;;;;;;11.98;10.35;;;20.40;99.90;;;;;;5030506;28;20363;-68
2021/09/16 02:43:50;;;;;;;13.88;10.57;;;20.40;99.90;;;;;;5030622;28;20030;-68
2021/09/16 02:46:15;;;;;;;16.17;10.70;;;20.40;99.90;;;;;;5029720;28;20378;-69
2021/09/16 02:48:41;;;;;;;13.43;9.75;;;20.30;99.90;;;;;;5029212;28;20036;-68
2021/09/16 02:51:07;;;;;;;14.50;10.32;;;20.30;99.90;;;;;;5046464;28;20033;-69
2021/09/16 02:53:32;;;;;;;15.30;10.70;;;20.30;99.90;;;;;;5037441;28;20033;-69
2021/09/16 02:55:58;;;;;;;18.67;10.63;;;20.30;99.90;;;;;;5029383;28;20415;-69
2021/09/16 02:58:24;;;;;;;17.55;11.40;;;20.30;99.90;;;;;;5033892;28;20524;-68
2021/09/16 03:00:49;;;;;;;15.60;10.77;;;20.30;99.90;;;;;;5033752;28;20077;-69
2021/09/16 03:03:15;;;;;;;15.57;11.68;;;20.30;99.90;;;;;;5039927;28;20048;-68
2021/09/16 03:05:40;;;;;;;14.98;11.30;;;20.30;99.90;;;;;;5051458;28;20029;-69
2021/09/16 03:08:06;;;;;;;17.23;11.18;;;20.30;99.90;;;;;;5051550;28;20430;-69
2021/09/16 03:10:32;;;;;;;13.95;10.20;;;20.20;99.90;;;;;;5044386;28;20040;-69
2021/09/16 03:12:57;;;;;;;14.15;10.45;;;20.30;99.90;;;;;;5054166;28;20074;-69
2021/09/16 03:15:23;;;;;;;14.95;10.45;;;20.20;99.90;;;;;;5025159;28;20040;-68
2021/09/16 03:17:48;;;;;;;13.80;10.55;;;20.30;99.90;;;;;;5033949;28;20048;-68
2021/09/16 03:20:14;;;;;;;14.35;11.18;;;20.30;99.90;;;;;;5034048;28;20541;-68
2021/09/16 03:22:40;;;;;;;14.23;10.90;;;20.30;99.90;;;;;;5035769;28;20116;-68
2021/09/16 03:25:07;;;;;;;15.73;10.95;;;20.30;99.90;;;;;;5035119;28;20025;-70
2021/09/16 03:27:32;;;;;;;15.27;12.20;;;20.20;99.90;;;;;;5053869;28;20063;-69
2021/09/16 03:29:59;;;;;;;17.63;11.68;;;20.30;99.90;;;;;;5043959;28;20056;-69
2021/09/16 03:32:24;;;;;;;19.02;12.73;;;20.30;99.90;;;;;;5054090;28;20025;-69
2021/09/16 03:34:50;;;;;;;18.65;12.82;;;20.30;99.90;;;;;;5039425;28;20043;-69
2021/09/16 03:37:15;;;;;;;16.08;12.52;;;20.30;99.90;;;;;;5033967;28;20022;-69
2021/09/16 03:39:41;;;;;;;19.17;13.45;;;20.30;99.90;;;;;;5031782;28;20079;-69
2021/09/16 03:42:07;;;;;;;20.15;12.63;;;20.30;99.90;;;;;;5033633;28;20041;-69
2021/09/16 03:44:32;;;;;;;18.17;11.90;;;20.30;99.90;;;;;;5050703;28;20540;-69
2021/09/16 03:46:58;;;;;;;18.65;12.55;;;20.30;99.90;;;;;;5053519;28;20032;-69
2021/09/16 03:49:23;;;;;;;18.52;12.73;;;20.30;99.90;;;;;;5043043;28;20021;-69
2021/09/16 03:51:49;;;;;;;19.77;13.93;;;20.30;99.90;;;;;;5041386;28;20084;-69
2021/09/16 03:54:14;;;;;;;18.23;13.13;;;20.40;99.90;;;;;;5031823;28;20026;-70
2021/09/16 03:56:40;;;;;;;21.42;14.50;;;20.40;99.90;;;;;;5043656;28;20069;-69
2021/09/16 03:59:05;;;;;;;20.90;13.80;;;20.40;99.90;;;;;;5032815;28;20036;-69
2021/09/16 04:01:31;;;;;;;23.25;16.00;;;20.30;99.90;;;;;;5040660;28;20095;-69
2021/09/16 04:03:57;;;;;;;24.48;15.98;;;20.30;99.90;;;;;;5032973;28;20029;-69
2021/09/16 04:06:22;;;;;;;20.40;15.77;;;20.30;99.90;;;;;;5030697;28;20017;-69
2021/09/16 04:08:48;;;;;;;22.50;16.15;;;20.30;99.90;;;;;;5032707;28;20029;-70
2021/09/16 04:11:13;;;;;;;22.98;15.90;;;20.30;99.90;;;;;;5044588;28;20792;-69
2021/09/16 04:13:39;;;;;;;26.42;16.52;;;20.30;99.90;;;;;;5013322;28;20034;-69
2021/09/16 04:16:04;;;;;;;25.30;16.20;;;20.30;99.90;;;;;;5028505;28;20482;-69
2021/09/16 04:18:30;;;;;;;25.90;17.15;;;20.30;99.90;;;;;;5032157;28;20048;-70
2021/09/16 04:20:56;;;;;;;25.73;17.48;;;20.30;99.90;;;;;;5046630;28;20040;-69
2021/09/16 04:23:21;;;;;;;23.70;16.30;;;20.20;99.90;;;;;;5031753;28;20036;-70
2021/09/16 04:25:47;;;;;;;25.13;16.73;;;20.20;99.90;;;;;;5045887;28;20060;-70
2021/09/16 04:28:13;;;;;;;27.25;17.45;;;20.20;99.90;;;;;;5034822;28;20614;-70
2021/09/16 04:30:38;;;;;;;25.35;16.73;;;20.20;99.90;;;;;;5032175;28;20034;-70
2021/09/16 04:33:04;;;;;;;21.98;14.75;;;20.20;99.90;;;;;;5031379;28;20029;-69
2021/09/16 04:35:29;;;;;;;29.15;18.58;;;20.10;99.90;;;;;;5042880;28;20087;-69
2021/09/16 04:37:55;;;;;;;23.45;17.40;;;20.10;99.90;;;;;;5038275;28;20386;-69
2021/09/16 04:40:20;;;;;;;24.67;17.38;;;20.00;99.90;;;;;;5031507;28;20112;-68
2021/09/16 04:42:46;;;;;;;22.67;16.50;;;20.00;99.90;;;;;;5031851;28;20421;-68
2021/09/16 04:45:12;;;;;;;25.50;16.70;;;20.00;99.90;;;;;;5030785;28;20079;-69
2021/09/16 04:47:40;;;;;;;24.05;16.20;;;20.00;99.90;;;;;;5036855;28;20025;-69
2021/09/16 04:50:08;;;;;;;21.98;15.63;;;19.90;99.90;;;;;;5042316;28;20120;-69
2021/09/16 04:52:33;;;;;;;25.15;16.08;;;20.00;99.90;;;;;;5031970;28;20064;-69
2021/09/16 04:54:58;;;;;;;24.77;16.33;;;19.90;99.90;;;;;;5023490;28;20077;-69
2021/09/16 04:57:24;;;;;;;22.13;15.05;;;19.90;99.90;;;;;;5012531;28;20474;-69
2021/09/16 04:59:49;;;;;;;19.45;14.90;;;19.90;99.90;;;;;;5025889;28;20033;-69
2021/09/16 05:02:15;;;;;;;22.83;14.27;;;19.90;99.90;;;;;;5031963;28;20117;-69
2021/09/16 05:04:40;;;;;;;21.90;15.13;;;19.90;99.90;;;;;;5028814;28;20087;-69
2021/09/16 05:07:06;;;;;;;24.20;14.90;;;19.90;99.90;;;;;;5051636;28;20433;-70
2021/09/16 05:09:31;;;;;;;18.95;13.90;;;19.90;99.90;;;;;;5038718;28;20021;-70
2021/09/16 05:11:57;;;;;;;18.58;13.23;;;19.90;99.90;;;;;;5015245;28;20030;-69
2021/09/16 05:14:22;;;;;;;19.73;13.48;;;19.90;99.90;;;;;;5022466;28;20044;-71
2021/09/16 05:16:48;;;;;;;18.77;13.55;;;19.90;99.90;;;;;;5038747;28;20021;-70
2021/09/16 05:19:13;;;;;;;20.00;13.68;;;19.90;99.90;;;;;;5030502;28;20029;-71
2021/09/16 05:21:39;;;;;;;18.50;13.00;;;19.90;99.90;;;;;;5031888;28;20032;-71
2021/09/16 05:24:04;;;;;;;20.38;13.20;;;19.90;99.90;;;;;;5029865;28;20030;-71
2021/09/16 05:26:30;;;;;;;21.13;14.48;;;19.90;99.90;;;;;;5031326;28;20075;-71
2021/09/16 05:28:55;;;;;;;17.83;13.38;;;19.90;99.90;;;;;;5029878;28;20104;-71
2021/09/16 05:31:21;;;;;;;16.85;12.13;;;19.90;99.90;;;;;;5048631;28;20029;-69
2021/09/16 05:33:46;;;;;;;20.42;13.20;;;19.90;99.90;;;;;;5048886;28;20464;-69
2021/09/16 05:36:12;;;;;;;21.65;13.48;;;19.90;99.90;;;;;;5030552;28;20049;-70
2021/09/16 05:38:37;;;;;;;17.17;11.40;;;19.90;99.90;;;;;;5031691;28;20169;-69
2021/09/16 05:41:03;;;;;;;17.40;12.30;;;19.90;99.90;;;;;;5046254;28;20371;-69
2021/09/16 05:43:28;;;;;;;15.10;10.50;;;19.90;99.90;;;;;;5051438;28;20036;-69
2021/09/16 05:45:54;;;;;;;15.85;11.07;;;19.90;99.90;;;;;;5045233;28;20025;-69
2021/09/16 05:48:20;;;;;;;14.65;10.13;;;19.90;99.90;;;;;;5035256;28;20025;-69
2021/09/16 05:50:46;;;;;;;16.25;10.82;;;19.90;99.90;;;;;;5030658;28;20454;-70
2021/09/16 05:53:12;;;;;;;15.57;10.88;;;19.90;99.90;;;;;;5030585;28;20083;-70
2021/09/16 05:55:39;;;;;;;13.55;8.75;;;19.90;99.90;;;;;;5027981;28;20420;-70
2021/09/16 05:58:06;;;;;;;11.13;8.00;;;19.80;99.90;;;;;;5031277;28;20025;-69
2021/09/16 06:00:31;;;;;;;12.45;8.73;;;19.80;99.90;;;;;;5030505;28;20064;-69
2021/09/16 06:02:57;;;;;;;10.25;8.18;;;19.80;99.90;;;;;;5031603;28;20454;-71
2021/09/16 06:05:23;;;;;;;11.68;8.48;;;19.80;99.90;;;;;;5032924;28;20037;-71
2021/09/16 06:07:48;;;;;;;10.30;7.78;;;19.80;99.90;;;;;;5031578;28;20136;-71
2021/09/16 06:10:14;;;;;;;12.02;7.32;;;19.80;99.90;;;;;;5039143;28;20021;-70
2021/09/16 06:12:40;;;;;;;10.43;7.80;;;19.90;99.90;;;;;;5034749;28;20025;-71
2021/09/16 06:15:05;;;;;;;9.68;7.63;;;19.90;99.90;;;;;;5034469;28;20037;-70
2021/09/16 06:17:31;;;;;;;11.98;8.13;;;19.90;99.90;;;;;;5044332;28;20041;-70
2021/09/16 06:19:56;;;;;;;12.63;8.30;;;20.00;99.90;;;;;;5041080;28;20052;-69
2021/09/16 06:22:22;;;;;;;10.18;7.50;;;20.00;99.90;;;;;;5041470;28;20029;-70
2021/09/16 06:24:47;;;;;;;12.38;8.00;;;20.10;99.90;;;;;;5036303;28;20558;-70
2021/09/16 06:27:13;;;;;;;10.25;6.93;;;20.10;99.90;;;;;;5038234;28;20040;-70
2021/09/16 06:29:38;;;;;;;12.00;6.40;;;20.10;99.90;;;;;;5053451;28;20025;-70
2021/09/16 06:32:05;;;;;;;8.93;6.75;;;20.10;99.90;;;;;;5061082;28;20048;-70
2021/09/16 06:34:30;;;;;;;11.32;6.40;;;20.10;99.90;;;;;;5039101;28;20048;-70
2021/09/16 06:36:57;;;;;;;7.53;5.78;;;20.10;99.80;;;;;;5034275;28;20037;-70
2021/09/16 06:39:23;;;;;;;10.88;5.72;;;20.10;99.80;;;;;;5033874;28;20095;-70
2021/09/16 06:41:49;;;;;;;7.80;5.53;;;20.10;99.40;;;;;;5043192;28;20026;-70
2021/09/16 06:44:14;;;;;;;10.27;6.30;;;20.10;99.40;;;;;;5037291;28;20128;-69
2021/09/16 06:46:39;;;;;;;9.60;5.55;;;20.10;99.30;;;;;;5031773;28;20033;-70
2021/09/16 06:49:05;;;;;;;9.45;5.93;;;20.10;99.30;;;;;;5032237;28;20033;-68
2021/09/16 06:51:30;;;;;;;8.48;5.90;;;20.00;99.30;;;;;;5042265;28;20028;-69
2021/09/16 06:53:56;;;;;;;7.30;5.65;;;20.00;99.20;;;;;;5033381;28;20462;-68
2021/09/16 06:56:21;;;;;;;7.53;5.43;;;20.00;99.20;;;;;;5037754;28;20040;-69
2021/09/16 06:58:47;;;;;;;7.93;5.40;;;20.00;99.30;;;;;;5034866;28;20076;-70
2021/09/16 07:01:15;;;;;;;8.48;5.25;;;20.00;99.40;;;;;;5033145;28;20446;-69
2021/09/16 07:03:41;;;;;;;8.25;5.93;;;20.00;99.40;;;;;;5032568;28;20029;-69
2021/09/16 07:06:06;;;;;;;7.63;5.60;;;20.00;99.40;;;;;;5030420;28;20042;-67
2021/09/16 07:08:32;;;;;;;11.07;6.13;;;20.00;99.40;;;;;;5030363;28;20386;-69
2021/09/16 07:10:57;;;;;;;11.50;5.90;;;20.00;99.10;;;;;;5031274;28;20021;-69
2021/09/16 07:13:23;;;;;;;8.77;4.95;;;19.90;99.20;;;;;;5040509;28;20028;-69
2021/09/16 07:15:48;;;;;;;8.23;4.78;;;20.00;99.20;;;;;;5039012;28;20029;-69
2021/09/16 07:18:14;;;;;;;5.88;4.40;;;20.00;99.10;;;;;;5034088;28;20028;-70
2021/09/16 07:20:39;;;;;;;8.52;4.88;;;20.10;99.10;;;;;;5031216;28;20443;-69
2021/09/16 07:23:05;;;;;;;8.07;5.40;;;20.10;99.10;;;;;;5035727;28;20036;-68
2021/09/16 07:25:30;;;;;;;5.68;5.00;;;20.20;99.10;;;;;;5031328;28;20022;-68
2021/09/16 07:27:56;;;;;;;8.38;3.70;;;20.20;98.80;;;;;;5036795;28;20025;-69
2021/09/16 07:30:22;;;;;;;6.43;3.47;;;20.20;98.70;;;;;;5041350;28;20523;-69
2021/09/16 07:32:47;;;;;;;6.63;3.25;;;20.30;98.40;;;;;;5039586;28;20013;-69
2021/09/16 07:35:13;;;;;;;4.75;3.75;;;20.40;98.20;;;;;;5032331;28;20052;-68
2021/09/16 07:37:38;;;;;;;5.30;3.38;;;20.50;98.00;;;;;;5034897;28;20025;-68
2021/09/16 07:40:04;;;;;;;5.80;3.60;;;20.60;97.80;;;;;;5030299;28;20100;-68
2021/09/16 07:42:30;;;;;;;3.97;3.20;;;20.60;97.60;;;;;;5050104;28;20033;-68
2021/09/16 07:44:55;;;;;;;4.38;2.97;;;20.60;97.50;;;;;;5042033;28;20024;-67
2021/09/16 07:47:21;;;;;;;4.03;3.00;;;20.70;97.40;;;;;;5039991;28;20116;-67
2021/09/16 07:49:47;;;;;;;4.88;3.05;;;20.80;97.10;;;;;;5036921;28;20044;-68
2021/09/16 07:52:15;;;;;;;6.63;3.38;;;20.80;97.10;;;;;;5036056;28;20036;-68
2021/09/16 07:54:41;;;;;;;4.55;3.65;;;20.80;97.10;;;;;;5035776;28;20049;-70
2021/09/16 07:57:07;;;;;;;4.93;3.25;;;20.90;97.10;;;;;;5033151;28;20044;-68
2021/09/16 07:59:33;;;;;;;4.32;3.40;;;21.00;97.20;;;;;;5027157;28;20025;-69
2021/09/16 08:01:58;;;;;;;4.63;3.00;;;21.10;96.90;;;;;;5031174;28;20026;-69
2021/09/16 08:04:24;;;;;;;5.88;2.92;;;21.10;96.70;;;;;;5023909;28;20048;-69
2021/09/16 08:06:50;;;;;;;5.85;3.42;;;21.20;96.30;;;;;;5038038;28;20481;-68
2021/09/16 08:09:15;;;;;;;4.13;2.90;;;21.30;96.30;;;;;;5033858;28;20037;-69
2021/09/16 08:11:44;;;;;;;5.05;3.00;;;21.30;96.30;;;;;;5029225;28;20018;-68
2021/09/16 08:14:10;;;;;;;4.63;2.90;;;21.40;96.20;;;;;;5033777;28;20042;-69
2021/09/16 08:16:36;;;;;;;4.28;2.45;;;21.50;96.10;;;;;;5034064;28;20021;-69
2021/09/16 08:19:04;;;;;;;5.45;2.55;;;21.50;96.00;;;;;;5028800;28;20112;-68
2021/09/16 08:21:29;;;;;;;5.22;2.40;;;21.60;95.60;;;;;;5030140;28;20087;-69
2021/09/16 08:23:55;;;;;;;5.10;2.65;;;21.70;95.30;;;;;;5029738;28;20022;-68
2021/09/16 08:26:21;;;;;;;7.13;2.42;;;21.70;95.00;;;;;;5031926;28;20033;-69
2021/09/16 08:28:46;;;;;;;4.65;1.92;;;21.70;94.80;;;;;;5033813;28;20049;-69
2021/09/16 08:31:12;;;;;;;3.13;2.10;;;21.70;94.50;;;;;;5031105;28;20428;-69
2021/09/16 08:33:38;;;;;;;3.58;2.35;;;21.70;94.60;;;;;;5036254;28;20079;-70
2021/09/16 08:36:04;;;;;;;3.08;1.75;;;21.70;94.30;;;;;;5030250;28;20021;-69
2021/09/16 08:38:30;;;;;;;4.70;2.20;;;21.80;94.00;;;;;;5030295;28;20040;-70
2021/09/16 08:40:55;;;;;;;3.67;2.10;;;21.80;93.70;;;;;;5031616;28;20477;-69
2021/09/16 08:43:29;;;;;;;4.53;1.80;;;21.70;93.80;;;;;;5032483;28;20561;-69
2021/09/16 08:45:54;;;;;;;3.00;1.95;;;21.70;93.60;;;;;;5026866;28;20543;-68
2021/09/16 08:48:20;;;;;;;3.53;2.00;;;21.80;93.60;;;;;;5037868;28;20029;-69
2021/09/16 08:50:45;;;;;;;2.63;2.25;;;21.80;93.50;;;;;;5031711;28;20034;-68
2021/09/16 08:53:17;;;;;;;2.28;1.90;;;21.80;93.40;;;;;;5025758;28;20037;-69
2021/09/16 08:55:43;;;;;;;3.42;1.80;;;21.80;93.20;;;;;;5040333;28;20052;-69
2021/09/16 08:58:10;;;;;;;4.53;1.70;;;21.80;93.00;;;;;;5040322;28;20048;-69
2021/09/16 09:00:36;;;;;;;4.13;1.98;;;21.80;93.20;;;;;;5030744;28;20037;-69
2021/09/16 09:03:02;;;;;;;3.05;1.73;;;21.90;92.90;;;;;;5032766;28;20036;-69
2021/09/16 09:05:29;;;;;;;3.55;1.63;;;21.90;92.40;;;;;;5036728;28;20393;-69
2021/09/16 09:07:56;;;;;;;2.50;1.77;;;21.90;92.50;;;;;;5038038;28;20029;-69
2021/09/16 09:10:38;;;;;;;3.13;2.30;;;21.90;92.30;;;;;;5035676;28;20111;-70
2021/09/16 09:13:32;;;;;;;3.72;1.98;;;21.90;92.60;;;;;;5040163;28;20021;-69
2021/09/16 09:16:06;;;;;;;3.22;2.00;;;22.00;92.80;;;;;;5027972;28;20025;-69
2021/09/16 09:18:46;;;;;;;2.78;1.77;;;22.00;92.50;;;;;;5033089;28;20036;-69
2021/09/16 09:21:14;;;;;;;3.38;1.50;;;22.00;92.50;;;;;;5035219;28;20091;-69
2021/09/16 09:23:46;;;;;;;3.35;1.95;;;22.10;92.20;;;;;;5029712;28;20087;-69
2021/09/16 09:26:23;;;;;;;3.85;1.70;;;22.10;91.90;;;;;;5031604;28;20453;-70
2021/09/16 09:28:50;;;;;;;2.92;1.60;;;22.10;91.90;;;;;;5024962;28;20105;-69
2021/09/16 09:31:20;;;;;;;2.55;1.80;;;22.20;91.80;;;;;;5023184;28;20038;-67
2021/09/16 09:33:45;;;;;;;2.63;1.90;;;22.20;91.80;;;;;;5029906;28;20033;-69
2021/09/16 09:36:20;;;;;;;3.65;1.80;;;22.10;91.80;;;;;;5026089;28;20113;-69
2021/09/16 09:39:01;;;;;;;4.28;1.80;;;22.10;92.00;;;;;;5038491;28;20049;-69
2021/09/16 09:41:35;;;;;;;2.83;1.58;;;22.10;91.30;;;;;;5030539;28;20096;-68
2021/09/16 09:44:08;;;;;;;2.53;1.67;;;22.00;91.30;;;;;;5031359;28;20117;-69
2021/09/16 09:46:40;;;;;;;2.65;1.48;;;21.90;91.20;;;;;;5031264;28;20043;-69
2021/09/16 09:49:09;;;;;;;2.90;1.50;;;21.80;90.90;;;;;;5031514;28;20075;-69
2021/09/16 09:51:51;;;;;;;2.00;1.35;;;21.70;90.50;;;;;;5030730;28;20033;-68
2021/09/16 09:54:21;;;;;;;1.52;1.30;;;21.50;90.50;;;;;;5030960;28;20099;-68
2021/09/16 09:56:59;;;;;;;2.50;1.40;;;21.40;90.40;;;;;;5026740;28;20431;-68
2021/09/16 09:59:25;;;;;;;2.28;1.38;;;21.40;90.70;;;;;;5031146;28;20033;-68
2021/09/16 10:02:01;;;;;;;2.80;1.23;;;21.40;90.70;;;;;;5028898;28;20033;-68
2021/09/16 10:04:28;;;;;;;3.15;1.65;;;21.30;90.80;;;;;;5031586;28;20075;-69
2021/09/16 10:07:00;;;;;;;1.60;1.20;;;21.40;90.60;;;;;;5031643;28;20038;-70
2021/09/16 10:09:26;;;;;;;1.70;1.10;;;21.40;90.60;;;;;;5029785;28;20041;-69
2021/09/16 10:11:52;;;;;;;2.28;1.50;;;21.40;90.60;;;;;;5033935;28;20113;-69
2021/09/16 10:14:19;;;;;;;4.70;1.30;;;21.50;90.50;;;;;;5034983;28;20033;-69
2021/09/16 10:16:46;;;;;;;3.22;1.15;;;21.50;90.30;;;;;;5033528;28;20124;-69
2021/09/16 10:19:12;;;;;;;1.85;1.23;;;21.60;90.20;;;;;;5034509;28;20113;-68
2021/09/16 10:21:38;;;;;;;2.03;1.30;;;21.60;90.20;;;;;;5031940;28;20478;-68
2021/09/16 10:24:06;;;;;;;3.20;1.10;;;21.60;90.00;;;;;;5019371;28;20052;-69
2021/09/16 10:26:44;;;;;;;2.05;1.23;;;21.70;89.80;;;;;;5029624;28;20091;-69
2021/09/16 10:29:28;;;;;;;3.47;1.92;;;21.70;89.20;;;;;;5034975;28;20041;-68
2021/09/16 10:32:05;;;;;;;2.45;1.30;;;21.70;89.40;;;;;;5031196;28;20513;-69
2021/09/16 10:34:56;;;;;;;2.97;1.30;;;21.80;89.40;;;;;;5034547;28;20041;-69
2021/09/16 10:37:23;;;;;;;1.77;1.10;;;21.80;89.30;;;;;;5034605;28;20033;-69
2021/09/16 10:39:49;;;;;;;2.63;1.20;;;21.90;88.90;;;;;;5032646;28;20100;-69
2021/09/16 10:42:17;;;;;;;2.40;1.17;;;21.90;88.60;;;;;;5033460;28;20071;-68
2021/09/16 10:44:43;;;;;;;1.67;1.10;;;21.90;88.20;;;;;;5022688;28;20553;-69
2021/09/16 10:47:20;;;;;;;2.20;1.35;;;22.00;87.50;;;;;;5022101;28;20041;-69
2021/09/16 10:49:47;;;;;;;2.40;1.52;;;22.10;87.90;;;;;;5033708;28;20116;-69
2021/09/16 10:52:12;;;;;;;2.22;0.98;;;22.10;87.40;;;;;;5034665;28;20029;-69
2021/09/16 10:54:53;;;;;;;3.20;1.23;;;22.10;86.30;;;;;;5014534;28;20101;-69
2021/09/16 10:57:29;;;;;;;2.15;1.10;;;22.10;87.00;;;;;;5021896;28;20501;-68
2021/09/16 10:59:54;;;;;;;4.50;1.30;;;22.20;86.30;;;;;;5031525;28;20049;-70
2021/09/16 11:02:22;;;;;;;5.00;1.48;;;22.20;85.70;;;;;;5034342;28;20026;-69
2021/09/16 11:07:34;;;;;;;6.15;1.60;;;22.20;86.20;;;;;;5030531;28;20543;-70
2021/09/16 11:10:15;;;;;;;2.78;1.65;;;22.20;86.30;;;;;;5033441;28;20040;-69
2021/09/16 11:12:45;;;;;;;2.88;1.20;;;22.20;86.40;;;;;;5031512;28;20386;-70
2021/09/16 11:15:27;;;;;;;4.63;1.90;;;22.20;85.60;;;;;;5033325;28;20083;-69
2021/09/16 11:18:13;;;;;;;3.28;1.33;;;22.20;85.70;;;;;;5027041;28;20091;-69
2021/09/16 11:20:41;;;;;;;3.60;1.35;;;22.10;86.00;;;;;;5020619;28;20034;-68
2021/09/16 11:23:07;;;;;;;2.60;1.30;;;22.20;85.80;;;;;;5020010;28;20025;-70
2021/09/16 11:25:51;;;;;;;3.28;1.52;;;22.20;85.60;;;;;;5032092;28;20111;-69
2021/09/16 11:28:17;;;;;;;5.03;1.33;;;22.20;85.70;;;;;;5049436;28;20493;-70
2021/09/16 11:30:45;;;;;;;2.00;1.40;;;22.20;85.20;;;;;;5033661;28;20041;-69
2021/09/16 11:33:15;;;;;;;3.47;1.50;;;22.30;84.60;;;;;;5035677;28;20033;-71
2021/09/16 11:35:40;;;;;;;2.40;1.40;;;22.30;84.90;;;;;;5033303;28;20033;-70
2021/09/16 11:38:07;;;;;;;5.68;1.60;;;22.30;84.80;;;;;;5029229;28;21019;-70
2021/09/16 11:40:38;;;;;;;2.88;1.20;;;22.30;84.30;;;;;;5030072;28;20037;-69
2021/09/16 11:43:06;;;;;;;2.65;1.02;;;22.20;84.10;;;;;;5031473;28;20079;-69
2021/09/16 11:45:34;;;;;;;3.15;1.27;;;22.10;84.20;;;;;;5029844;28;20083;-71
2021/09/16 11:48:27;;;;;;;2.95;1.80;;;22.00;83.90;;;;;;5030399;28;20386;-70
2021/09/16 11:51:04;;;;;;;3.65;1.40;;;22.00;84.50;;;;;;5032455;28;20069;-71
2021/09/16 11:53:34;;;;;;;3.85;2.05;;;21.90;84.80;;;;;;5028704;28;20039;-70
2021/09/16 11:56:01;;;;;;;2.25;1.30;;;21.80;84.80;;;;;;5028195;28;20033;-71
2021/09/16 11:58:32;;;;;;;3.78;1.40;;;21.70;84.90;;;;;;5029947;28;20030;-71
2021/09/16 12:01:16;;;;;;;3.58;1.98;;;21.60;85.30;;;;;;5029910;28;20021;-72
2021/09/16 12:03:49;;;;;;;2.60;1.57;;;21.60;85.50;;;;;;5034934;28;20041;-70
2021/09/16 12:06:18;;;;;;;4.25;1.30;;;21.60;85.70;;;;;;5029481;28;20308;-69
2021/09/16 12:08:52;;;;;;;3.53;1.40;;;21.70;85.60;;;;;;5029951;28;20067;-69
2021/09/16 12:11:22;;;;;;;8.32;1.85;;;21.60;85.50;;;;;;5044553;28;20124;-69
2021/09/16 12:13:52;;;;;;;4.68;1.83;;;21.60;85.80;;;;;;5039486;28;20142;-69
2021/09/16 12:16:21;;;;;;;3.60;1.40;;;21.60;85.60;;;;;;5029332;28;20032;-68
2021/09/16 12:18:49;;;;;;;2.72;1.58;;;21.60;85.50;;;;;;5029145;28;20460;-68
2021/09/16 12:21:19;;;;;;;3.67;1.35;;;21.60;86.00;;;;;;5029787;28;20024;-68
2021/09/16 12:23:50;;;;;;;3.17;1.10;;;21.60;85.70;;;;;;5030118;28;20036;-67
2021/09/16 12:26:21;;;;;;;1.98;1.10;;;21.70;85.40;;;;;;5028203;28;20033;-68
2021/09/16 12:28:55;;;;;;;1.90;1.17;;;21.80;85.70;;;;;;5029629;28;20402;-68
2021/09/16 12:31:23;;;;;;;2.33;1.20;;;21.80;85.70;;;;;;5028640;28;20037;-68
2021/09/16 12:33:59;;;;;;;2.83;1.10;;;21.90;85.50;;;;;;5028839;28;20031;-68
2021/09/16 12:36:28;;;;;;;2.83;1.30;;;22.00;84.80;;;;;;5024900;28;20033;-68
2021/09/16 12:39:02;;;;;;;2.53;1.10;;;22.00;84.30;;;;;;5026817;28;20044;-68
2021/09/16 12:41:38;;;;;;;3.88;1.10;;;22.10;84.00;;;;;;5035880;28;20451;-68